Meteo

Ora Tempo Temperatura Umidità Vento Precipitazioni
21:00 cielo sereno 6.1° 75% 5.02 km/h 0 mm
Ora Tempo Temperatura Umidità Vento Precipitazioni
00:00 cielo sereno 6.4° 70% 4.43 km/h 0 mm
03:00 cielo sereno 6.0° 68% 3.1 km/h 0 mm
06:00 cielo sereno 5.4° 65% 2.91 km/h 0 mm
09:00 cielo sereno 7.4° 55% 2.43 km/h 0 mm
12:00 poche nuvole 10.2° 53% 2.2 km/h 0 mm
15:00 nubi sparse 10.2° 60% 1.26 km/h 0 mm
18:00 nubi sparse 9.1° 62% 1.11 km/h 0 mm
21:00 nubi sparse 7.7° 66% 3.21 km/h 0 mm
Ora Tempo Temperatura Umidità Vento Precipitazioni
00:00 nubi sparse 7.3° 58% 2.74 km/h 0 mm
03:00 cielo coperto 8.1° 57% 4.66 km/h 0 mm
06:00 cielo coperto 9.0° 70% 4.39 km/h 0 mm
09:00 pioggia moderata 12.0° 87% 9.64 km/h 6.81 mm
12:00 pioggia leggera 14.4° 82% 12.1 km/h 2.98 mm
15:00 pioggia leggera 14.8° 84% 9.88 km/h 2.08 mm
18:00 pioggia leggera 12.2° 71% 8.02 km/h 2.22 mm
21:00 pioggia leggera 10.1° 78% 1.75 km/h 1.10 mm
Ora Tempo Temperatura Umidità Vento Precipitazioni
00:00 pioggia moderata 10.5° 78% 5.08 km/h 5.48 mm
03:00 pioggia moderata 9.0° 80% 8.07 km/h 11.87 mm
06:00 pioggia moderata 10.7° 65% 10.1 km/h 3.08 mm
09:00 pioggia leggera 10.9° 59% 5.38 km/h 0.54 mm
12:00 pioggia leggera 10.7° 59% 0.58 km/h 1.62 mm
15:00 pioggia leggera 9.9° 67% 4.2 km/h 1.21 mm
18:00 pioggia leggera 9.1° 71% 5.7 km/h 1.91 mm
21:00 pioggia leggera 8.1° 73% 3.96 km/h 0.75 mm
Ora Tempo Temperatura Umidità Vento Precipitazioni
00:00 pioggia leggera 7.1° 78% 2.1 km/h 0.58 mm
03:00 pioggia leggera 6.6° 79% 2.14 km/h 0.34 mm
06:00 nubi sparse 6.4° 76% 2.38 km/h 0 mm
09:00 nubi sparse 7.5° 73% 3.47 km/h 0 mm
12:00 nubi sparse 10.0° 70% 6.74 km/h 0 mm
15:00 pioggia leggera 11.0° 73% 7.44 km/h 0.23 mm
18:00 pioggia leggera 11.3° 72% 6.58 km/h 1.85 mm
21:00 pioggia leggera 10.4° 71% 5.05 km/h 1.73 mm
Ora Tempo Temperatura Umidità Vento Precipitazioni
00:00 pioggia leggera 8.9° 74% 4.38 km/h 1.00 mm
03:00 pioggia leggera 7.3° 83% 5.02 km/h 0.49 mm
06:00 pioggia moderata 5.0° 94% 8.67 km/h 9.11 mm
09:00 pioggia moderata 6.0° 89% 7.82 km/h 4.14 mm
12:00 pioggia leggera 8.2° 82% 9.17 km/h 0.18 mm
15:00 cielo coperto 8.2° 79% 7.51 km/h 0 mm
18:00 cielo coperto 7.7° 72% 6.37 km/h 0 mm
Lunedì 06 Dicembre
Temp. max: 7.1°
Temp. min: 6.1°
Ora Tempo Temperatura Umidità Vento Precipitazioni
21:00 cielo sereno 6.1° 75% 5.02 km/h 0 mm
Martedì 07 Dicembre
Temp. max: 10.2°
Temp. min: 5.4°
Ora Tempo Temperatura Umidità Vento Precipitazioni
00:00 cielo sereno 6.4° 70% 4.43 km/h 0 mm
03:00 cielo sereno 6.0° 68% 3.1 km/h 0 mm
06:00 cielo sereno 5.4° 65% 2.91 km/h 0 mm
09:00 cielo sereno 7.4° 55% 2.43 km/h 0 mm
12:00 poche nuvole 10.2° 53% 2.2 km/h 0 mm
15:00 nubi sparse 10.2° 60% 1.26 km/h 0 mm
18:00 nubi sparse 9.1° 62% 1.11 km/h 0 mm
21:00 nubi sparse 7.7° 66% 3.21 km/h 0 mm
Mercoledì 08 Dicembre
Temp. max: 14.8°
Temp. min: 7.3°
Ora Tempo Temperatura Umidità Vento Precipitazioni
00:00 nubi sparse 7.3° 58% 2.74 km/h 0 mm
03:00 cielo coperto 8.1° 57% 4.66 km/h 0 mm
06:00 cielo coperto 9.0° 70% 4.39 km/h 0 mm
09:00 pioggia moderata 12.0° 87% 9.64 km/h 6.81 mm
12:00 pioggia leggera 14.4° 82% 12.1 km/h 2.98 mm
15:00 pioggia leggera 14.8° 84% 9.88 km/h 2.08 mm
18:00 pioggia leggera 12.2° 71% 8.02 km/h 2.22 mm
21:00 pioggia leggera 10.1° 78% 1.75 km/h 1.10 mm
Giovedì 09 Dicembre
Temp. max: 10.9°
Temp. min: 8.1°
Ora Tempo Temperatura Umidità Vento Precipitazioni
00:00 pioggia moderata 10.5° 78% 5.08 km/h 5.48 mm
03:00 pioggia moderata 9.0° 80% 8.07 km/h 11.87 mm
06:00 pioggia moderata 10.7° 65% 10.1 km/h 3.08 mm
09:00 pioggia leggera 10.9° 59% 5.38 km/h 0.54 mm
12:00 pioggia leggera 10.7° 59% 0.58 km/h 1.62 mm
15:00 pioggia leggera 9.9° 67% 4.2 km/h 1.21 mm
18:00 pioggia leggera 9.1° 71% 5.7 km/h 1.91 mm
21:00 pioggia leggera 8.1° 73% 3.96 km/h 0.75 mm
Venerdì 10 Dicembre
Temp. max: 11.3°
Temp. min: 6.4°
Ora Tempo Temperatura Umidità Vento Precipitazioni
00:00 pioggia leggera 7.1° 78% 2.1 km/h 0.58 mm
03:00 pioggia leggera 6.6° 79% 2.14 km/h 0.34 mm
06:00 nubi sparse 6.4° 76% 2.38 km/h 0 mm
09:00 nubi sparse 7.5° 73% 3.47 km/h 0 mm
12:00 nubi sparse 10.0° 70% 6.74 km/h 0 mm
15:00 pioggia leggera 11.0° 73% 7.44 km/h 0.23 mm
18:00 pioggia leggera 11.3° 72% 6.58 km/h 1.85 mm
21:00 pioggia leggera 10.4° 71% 5.05 km/h 1.73 mm
Sabato 11 Dicembre
Temp. max: 8.9°
Temp. min: 5.0°
Ora Tempo Temperatura Umidità Vento Precipitazioni
00:00 pioggia leggera 8.9° 74% 4.38 km/h 1.00 mm
03:00 pioggia leggera 7.3° 83% 5.02 km/h 0.49 mm
06:00 pioggia moderata 5.0° 94% 8.67 km/h 9.11 mm
09:00 pioggia moderata 6.0° 89% 7.82 km/h 4.14 mm
12:00 pioggia leggera 8.2° 82% 9.17 km/h 0.18 mm
15:00 cielo coperto 8.2° 79% 7.51 km/h 0 mm
18:00 cielo coperto 7.7° 72% 6.37 km/h 0 mm

Live Cam

VUOI RICEVERE PIÚ INFORMAZIONI SUI NOSTRI SERVIZI?

Usa la form di contatti sul sito o contattaci telefonicamente